sensor_id;sensor_type;location;lat;lon;timestamp;temperature;humidity
19538;DHT22;9914;51.008;4.300;2023-07-08T00:02:12;22.00;99.90
19538;DHT22;9914;51.008;4.300;2023-07-08T00:04:38;21.90;99.90
19538;DHT22;9914;51.008;4.300;2023-07-08T00:07:05;21.90;99.90
19538;DHT22;9914;51.008;4.300;2023-07-08T00:09:31;21.90;99.90
19538;DHT22;9914;51.008;4.300;2023-07-08T00:11:57;21.90;99.90
19538;DHT22;9914;51.008;4.300;2023-07-08T00:14:23;21.90;99.90
19538;DHT22;9914;51.008;4.300;2023-07-08T00:16:49;21.80;99.90
19538;DHT22;9914;51.008;4.300;2023-07-08T00:19:16;21.80;99.90
19538;DHT22;9914;51.008;4.300;2023-07-08T00:21:45;21.70;99.90
19538;DHT22;9914;51.008;4.300;2023-07-08T00:24:11;21.70;99.90
19538;DHT22;9914;51.008;4.300;2023-07-08T00:26:37;21.60;99.90
19538;DHT22;9914;51.008;4.300;2023-07-08T00:29:05;21.60;99.90
19538;DHT22;9914;51.008;4.300;2023-07-08T00:31:33;21.60;99.90
19538;DHT22;9914;51.008;4.300;2023-07-08T00:33:59;21.60;99.90
19538;DHT22;9914;51.008;4.300;2023-07-08T00:36:27;21.60;99.90
19538;DHT22;9914;51.008;4.300;2023-07-08T00:38:52;21.60;99.90
19538;DHT22;9914;51.008;4.300;2023-07-08T00:41:20;21.60;99.90
19538;DHT22;9914;51.008;4.300;2023-07-08T00:43:57;21.60;99.90
19538;DHT22;9914;51.008;4.300;2023-07-08T00:46:31;21.50;99.90
19538;DHT22;9914;51.008;4.300;2023-07-08T00:51:38;21.30;99.90
19538;DHT22;9914;51.008;4.300;2023-07-08T00:54:15;21.20;99.90
19538;DHT22;9914;51.008;4.300;2023-07-08T00:56:57;21.10;99.90
19538;DHT22;9914;51.008;4.300;2023-07-08T00:59:32;21.10;99.90
19538;DHT22;9914;51.008;4.300;2023-07-08T01:02:02;21.00;99.90
19538;DHT22;9914;51.008;4.300;2023-07-08T01:04:37;20.90;99.90
19538;DHT22;9914;51.008;4.300;2023-07-08T01:07:04;20.90;99.90
19538;DHT22;9914;51.008;4.300;2023-07-08T01:09:39;20.90;99.90
19538;DHT22;9914;51.008;4.300;2023-07-08T01:12:10;20.90;99.90
19538;DHT22;9914;51.008;4.300;2023-07-08T01:14:38;20.70;99.90
19538;DHT22;9914;51.008;4.300;2023-07-08T01:17:08;20.70;99.90
19538;DHT22;9914;51.008;4.300;2023-07-08T01:19:42;20.70;99.90
19538;DHT22;9914;51.008;4.300;2023-07-08T01:22:09;20.70;99.90
19538;DHT22;9914;51.008;4.300;2023-07-08T01:24:38;20.60;99.90
19538;DHT22;9914;51.008;4.300;2023-07-08T01:27:08;20.60;99.90
19538;DHT22;9914;51.008;4.300;2023-07-08T01:29:35;20.60;99.90
19538;DHT22;9914;51.008;4.300;2023-07-08T01:32:01;20.70;99.90
19538;DHT22;9914;51.008;4.300;2023-07-08T01:34:37;20.70;99.90
19538;DHT22;9914;51.008;4.300;2023-07-08T01:37:04;20.60;99.90
19538;DHT22;9914;51.008;4.300;2023-07-08T01:39:32;20.60;99.90
19538;DHT22;9914;51.008;4.300;2023-07-08T01:41:58;20.50;99.90
19538;DHT22;9914;51.008;4.300;2023-07-08T01:44:32;20.40;99.90
19538;DHT22;9914;51.008;4.300;2023-07-08T01:47:11;20.30;99.90
19538;DHT22;9914;51.008;4.300;2023-07-08T01:49:39;20.20;99.90
19538;DHT22;9914;51.008;4.300;2023-07-08T01:52:06;20.10;99.90
19538;DHT22;9914;51.008;4.300;2023-07-08T01:54:32;20.20;99.90
19538;DHT22;9914;51.008;4.300;2023-07-08T01:56:58;20.20;99.90
19538;DHT22;9914;51.008;4.300;2023-07-08T01:59:24;20.10;99.90
19538;DHT22;9914;51.008;4.300;2023-07-08T02:01:50;20.10;99.90
19538;DHT22;9914;51.008;4.300;2023-07-08T02:04:23;20.00;99.90
19538;DHT22;9914;51.008;4.300;2023-07-08T02:07:00;20.00;99.90
19538;DHT22;9914;51.008;4.300;2023-07-08T02:09:25;19.90;99.90
19538;DHT22;9914;51.008;4.300;2023-07-08T02:11:54;20.00;99.90
19538;DHT22;9914;51.008;4.300;2023-07-08T02:14:20;20.00;99.90
19538;DHT22;9914;51.008;4.300;2023-07-08T02:16:46;19.90;99.90
19538;DHT22;9914;51.008;4.300;2023-07-08T02:19:12;19.80;99.90
19538;DHT22;9914;51.008;4.300;2023-07-08T02:21:38;19.80;99.90
19538;DHT22;9914;51.008;4.300;2023-07-08T02:24:04;19.90;99.90
19538;DHT22;9914;51.008;4.300;2023-07-08T02:26:30;19.70;99.90
19538;DHT22;9914;51.008;4.300;2023-07-08T02:29:00;19.80;99.90
19538;DHT22;9914;51.008;4.300;2023-07-08T02:31:26;19.70;99.90
19538;DHT22;9914;51.008;4.300;2023-07-08T02:33:52;19.70;99.90
19538;DHT22;9914;51.008;4.300;2023-07-08T02:36:18;19.70;99.90
19538;DHT22;9914;51.008;4.300;2023-07-08T02:38:44;19.70;99.90
19538;DHT22;9914;51.008;4.300;2023-07-08T02:41:09;19.60;99.90
19538;DHT22;9914;51.008;4.300;2023-07-08T02:43:37;19.60;99.90
19538;DHT22;9914;51.008;4.300;2023-07-08T02:46:03;19.70;99.90
19538;DHT22;9914;51.008;4.300;2023-07-08T02:48:29;19.60;99.90
19538;DHT22;9914;51.008;4.300;2023-07-08T02:51:02;19.50;99.90
19538;DHT22;9914;51.008;4.300;2023-07-08T02:53:28;19.50;99.90
19538;DHT22;9914;51.008;4.300;2023-07-08T02:55:53;19.40;99.90
19538;DHT22;9914;51.008;4.300;2023-07-08T02:58:19;19.40;99.90
19538;DHT22;9914;51.008;4.300;2023-07-08T03:00:45;19.40;99.90
19538;DHT22;9914;51.008;4.300;2023-07-08T03:03:10;19.40;99.90
19538;DHT22;9914;51.008;4.300;2023-07-08T03:05:36;19.50;99.90
19538;DHT22;9914;51.008;4.300;2023-07-08T03:08:02;19.40;99.90
19538;DHT22;9914;51.008;4.300;2023-07-08T03:10:27;19.30;99.90
19538;DHT22;9914;51.008;4.300;2023-07-08T03:12:53;19.30;99.90
19538;DHT22;9914;51.008;4.300;2023-07-08T03:15:19;19.20;99.90
19538;DHT22;9914;51.008;4.300;2023-07-08T03:17:45;19.20;99.90
19538;DHT22;9914;51.008;4.300;2023-07-08T03:20:11;19.10;99.90
19538;DHT22;9914;51.008;4.300;2023-07-08T03:22:37;19.10;99.90
19538;DHT22;9914;51.008;4.300;2023-07-08T03:25:03;19.10;99.90
19538;DHT22;9914;51.008;4.300;2023-07-08T03:27:28;19.10;99.90
19538;DHT22;9914;51.008;4.300;2023-07-08T03:29:54;19.10;99.90
19538;DHT22;9914;51.008;4.300;2023-07-08T03:32:20;19.10;99.90
19538;DHT22;9914;51.008;4.300;2023-07-08T03:34:46;19.00;99.90
19538;DHT22;9914;51.008;4.300;2023-07-08T03:37:12;19.10;99.90
19538;DHT22;9914;51.008;4.300;2023-07-08T03:39:38;19.20;99.90
19538;DHT22;9914;51.008;4.300;2023-07-08T03:42:04;19.20;99.90
19538;DHT22;9914;51.008;4.300;2023-07-08T03:44:29;19.10;99.90
19538;DHT22;9914;51.008;4.300;2023-07-08T03:46:55;19.20;99.90
19538;DHT22;9914;51.008;4.300;2023-07-08T03:49:22;19.10;99.90
19538;DHT22;9914;51.008;4.300;2023-07-08T03:51:51;19.10;99.90
19538;DHT22;9914;51.008;4.300;2023-07-08T03:54:19;19.10;99.90
19538;DHT22;9914;51.008;4.300;2023-07-08T03:56:45;19.10;99.90
19538;DHT22;9914;51.008;4.300;2023-07-08T03:59:11;19.10;99.90
19538;DHT22;9914;51.008;4.300;2023-07-08T04:01:36;19.10;99.90
19538;DHT22;9914;51.008;4.300;2023-07-08T04:04:08;19.10;99.90
19538;DHT22;9914;51.008;4.300;2023-07-08T04:06:35;19.10;99.90
19538;DHT22;9914;51.008;4.300;2023-07-08T04:09:00;19.00;99.90
19538;DHT22;9914;51.008;4.300;2023-07-08T04:11:26;19.00;99.90
19538;DHT22;9914;51.008;4.300;2023-07-08T04:13:52;19.10;99.90
19538;DHT22;9914;51.008;4.300;2023-07-08T04:16:30;19.10;99.90
19538;DHT22;9914;51.008;4.300;2023-07-08T04:18:56;19.30;99.90
19538;DHT22;9914;51.008;4.300;2023-07-08T04:21:24;19.10;99.90
19538;DHT22;9914;51.008;4.300;2023-07-08T04:23:50;19.20;99.90
19538;DHT22;9914;51.008;4.300;2023-07-08T04:26:17;19.30;99.90
19538;DHT22;9914;51.008;4.300;2023-07-08T04:28:44;19.10;99.90
19538;DHT22;9914;51.008;4.300;2023-07-08T04:31:10;19.10;99.90
19538;DHT22;9914;51.008;4.300;2023-07-08T04:33:35;19.20;99.90
19538;DHT22;9914;51.008;4.300;2023-07-08T04:36:01;19.20;99.90
19538;DHT22;9914;51.008;4.300;2023-07-08T04:38:27;19.30;99.90
19538;DHT22;9914;51.008;4.300;2023-07-08T04:40:53;19.30;99.90
19538;DHT22;9914;51.008;4.300;2023-07-08T04:43:20;19.50;99.90
19538;DHT22;9914;51.008;4.300;2023-07-08T04:45:51;19.50;99.90
19538;DHT22;9914;51.008;4.300;2023-07-08T04:48:19;19.60;99.90
19538;DHT22;9914;51.008;4.300;2023-07-08T04:50:48;19.60;99.90
19538;DHT22;9914;51.008;4.300;2023-07-08T04:53:15;19.60;99.90
19538;DHT22;9914;51.008;4.300;2023-07-08T04:56:07;19.70;99.90
19538;DHT22;9914;51.008;4.300;2023-07-08T04:58:33;19.70;99.90
19538;DHT22;9914;51.008;4.300;2023-07-08T05:00:58;19.80;99.90
19538;DHT22;9914;51.008;4.300;2023-07-08T05:03:24;19.90;99.90
19538;DHT22;9914;51.008;4.300;2023-07-08T05:05:49;20.00;99.90
19538;DHT22;9914;51.008;4.300;2023-07-08T05:08:15;20.10;99.90
19538;DHT22;9914;51.008;4.300;2023-07-08T05:10:41;20.20;99.90
19538;DHT22;9914;51.008;4.300;2023-07-08T05:13:06;20.30;99.90
19538;DHT22;9914;51.008;4.300;2023-07-08T05:15:32;20.50;99.90
19538;DHT22;9914;51.008;4.300;2023-07-08T05:17:57;20.60;99.90
19538;DHT22;9914;51.008;4.300;2023-07-08T05:20:23;20.60;99.90
19538;DHT22;9914;51.008;4.300;2023-07-08T05:22:49;20.70;99.90
19538;DHT22;9914;51.008;4.300;2023-07-08T05:25:15;20.70;99.90
19538;DHT22;9914;51.008;4.300;2023-07-08T05:27:41;20.80;99.90
19538;DHT22;9914;51.008;4.300;2023-07-08T05:30:08;21.10;99.90
19538;DHT22;9914;51.008;4.300;2023-07-08T05:32:34;21.00;99.90
19538;DHT22;9914;51.008;4.300;2023-07-08T05:34:59;21.10;99.90
19538;DHT22;9914;51.008;4.300;2023-07-08T05:37:25;21.30;99.90
19538;DHT22;9914;51.008;4.300;2023-07-08T05:39:53;21.30;99.90
19538;DHT22;9914;51.008;4.300;2023-07-08T05:42:22;21.40;99.90
19538;DHT22;9914;51.008;4.300;2023-07-08T05:44:47;21.40;99.90
19538;DHT22;9914;51.008;4.300;2023-07-08T05:47:14;21.60;99.90
19538;DHT22;9914;51.008;4.300;2023-07-08T05:49:40;21.70;99.90
19538;DHT22;9914;51.008;4.300;2023-07-08T05:52:07;21.80;99.90
19538;DHT22;9914;51.008;4.300;2023-07-08T05:54:37;22.00;99.90
19538;DHT22;9914;51.008;4.300;2023-07-08T05:57:04;22.10;99.90
19538;DHT22;9914;51.008;4.300;2023-07-08T05:59:30;22.10;99.90
19538;DHT22;9914;51.008;4.300;2023-07-08T06:01:56;22.20;99.90
19538;DHT22;9914;51.008;4.300;2023-07-08T06:04:21;22.30;99.90
19538;DHT22;9914;51.008;4.300;2023-07-08T06:06:48;22.30;99.90
19538;DHT22;9914;51.008;4.300;2023-07-08T06:09:14;22.30;99.90
19538;DHT22;9914;51.008;4.300;2023-07-08T06:11:39;22.40;99.90
19538;DHT22;9914;51.008;4.300;2023-07-08T06:14:05;22.60;99.90
19538;DHT22;9914;51.008;4.300;2023-07-08T06:16:31;22.60;99.90
19538;DHT22;9914;51.008;4.300;2023-07-08T06:18:57;22.70;99.90
19538;DHT22;9914;51.008;4.300;2023-07-08T06:21:24;22.70;99.90
19538;DHT22;9914;51.008;4.300;2023-07-08T06:23:49;22.90;99.90
19538;DHT22;9914;51.008;4.300;2023-07-08T06:26:15;23.00;99.90
19538;DHT22;9914;51.008;4.300;2023-07-08T06:28:41;23.10;99.90
19538;DHT22;9914;51.008;4.300;2023-07-08T06:31:06;23.30;99.90
19538;DHT22;9914;51.008;4.300;2023-07-08T06:33:32;23.30;99.90
19538;DHT22;9914;51.008;4.300;2023-07-08T06:35:57;23.40;99.90
19538;DHT22;9914;51.008;4.300;2023-07-08T06:38:23;23.60;99.90
19538;DHT22;9914;51.008;4.300;2023-07-08T06:40:49;23.90;99.90
19538;DHT22;9914;51.008;4.300;2023-07-08T06:43:14;24.00;99.90
19538;DHT22;9914;51.008;4.300;2023-07-08T06:45:41;24.00;99.90
19538;DHT22;9914;51.008;4.300;2023-07-08T06:48:06;24.30;99.90
19538;DHT22;9914;51.008;4.300;2023-07-08T06:50:32;24.30;99.90
19538;DHT22;9914;51.008;4.300;2023-07-08T06:52:58;24.50;99.90
19538;DHT22;9914;51.008;4.300;2023-07-08T06:55:24;24.60;99.90
19538;DHT22;9914;51.008;4.300;2023-07-08T06:57:49;24.60;99.90
19538;DHT22;9914;51.008;4.300;2023-07-08T07:00:15;24.60;99.90
19538;DHT22;9914;51.008;4.300;2023-07-08T07:02:41;24.60;99.90
19538;DHT22;9914;51.008;4.300;2023-07-08T07:05:07;24.80;99.90
19538;DHT22;9914;51.008;4.300;2023-07-08T07:07:33;24.90;99.90
19538;DHT22;9914;51.008;4.300;2023-07-08T07:10:01;25.00;99.90
19538;DHT22;9914;51.008;4.300;2023-07-08T07:12:26;25.20;99.90
19538;DHT22;9914;51.008;4.300;2023-07-08T07:14:52;25.40;99.90
19538;DHT22;9914;51.008;4.300;2023-07-08T07:17:23;25.60;99.90
19538;DHT22;9914;51.008;4.300;2023-07-08T07:19:49;25.80;99.90
19538;DHT22;9914;51.008;4.300;2023-07-08T07:22:15;25.70;99.90
19538;DHT22;9914;51.008;4.300;2023-07-08T07:24:41;25.80;99.90
19538;DHT22;9914;51.008;4.300;2023-07-08T07:27:07;26.10;99.90
19538;DHT22;9914;51.008;4.300;2023-07-08T07:29:46;26.40;99.90
19538;DHT22;9914;51.008;4.300;2023-07-08T07:32:13;26.60;99.90
19538;DHT22;9914;51.008;4.300;2023-07-08T07:34:39;26.40;99.90
19538;DHT22;9914;51.008;4.300;2023-07-08T07:37:06;26.30;99.90
19538;DHT22;9914;51.008;4.300;2023-07-08T07:39:39;26.40;99.90
19538;DHT22;9914;51.008;4.300;2023-07-08T07:42:05;26.50;99.90
19538;DHT22;9914;51.008;4.300;2023-07-08T07:44:31;26.90;99.90
19538;DHT22;9914;51.008;4.300;2023-07-08T07:46:57;27.30;99.90
19538;DHT22;9914;51.008;4.300;2023-07-08T07:49:22;27.30;99.90
19538;DHT22;9914;51.008;4.300;2023-07-08T07:51:49;27.50;99.90
19538;DHT22;9914;51.008;4.300;2023-07-08T07:54:16;27.70;99.90
19538;DHT22;9914;51.008;4.300;2023-07-08T07:56:42;27.70;99.90
19538;DHT22;9914;51.008;4.300;2023-07-08T07:59:07;27.90;99.90
19538;DHT22;9914;51.008;4.300;2023-07-08T08:01:33;28.10;99.90
19538;DHT22;9914;51.008;4.300;2023-07-08T08:03:58;28.00;99.90
19538;DHT22;9914;51.008;4.300;2023-07-08T08:06:24;27.80;99.90
19538;DHT22;9914;51.008;4.300;2023-07-08T08:08:50;27.80;99.90
19538;DHT22;9914;51.008;4.300;2023-07-08T08:11:16;27.90;99.90
19538;DHT22;9914;51.008;4.300;2023-07-08T08:13:42;28.10;99.90
19538;DHT22;9914;51.008;4.300;2023-07-08T08:16:10;28.20;99.90
19538;DHT22;9914;51.008;4.300;2023-07-08T08:18:36;28.50;99.90
19538;DHT22;9914;51.008;4.300;2023-07-08T08:21:02;28.70;99.90
19538;DHT22;9914;51.008;4.300;2023-07-08T08:23:28;28.70;99.90
19538;DHT22;9914;51.008;4.300;2023-07-08T08:25:53;28.90;99.90
19538;DHT22;9914;51.008;4.300;2023-07-08T08:28:19;29.30;99.90
19538;DHT22;9914;51.008;4.300;2023-07-08T08:30:51;29.50;99.90
19538;DHT22;9914;51.008;4.300;2023-07-08T08:33:19;29.80;99.90
19538;DHT22;9914;51.008;4.300;2023-07-08T08:35:45;29.90;99.90
19538;DHT22;9914;51.008;4.300;2023-07-08T08:38:11;29.90;99.90
19538;DHT22;9914;51.008;4.300;2023-07-08T08:40:37;30.10;99.90
19538;DHT22;9914;51.008;4.300;2023-07-08T08:43:09;29.90;99.90
19538;DHT22;9914;51.008;4.300;2023-07-08T08:49:37;30.10;99.90
19538;DHT22;9914;51.008;4.300;2023-07-08T08:51:37;30.50;99.90
19538;DHT22;9914;51.008;4.300;2023-07-08T08:54:03;30.70;99.90
19538;DHT22;9914;51.008;4.300;2023-07-08T08:56:44;30.80;99.90
19538;DHT22;9914;51.008;4.300;2023-07-08T08:59:45;30.70;99.90
19538;DHT22;9914;51.008;4.300;2023-07-08T09:04:53;30.90;99.90
19538;DHT22;9914;51.008;4.300;2023-07-08T09:07:20;30.90;99.90
19538;DHT22;9914;51.008;4.300;2023-07-08T09:10:13;31.00;99.90
19538;DHT22;9914;51.008;4.300;2023-07-08T09:12:40;31.10;99.90
19538;DHT22;9914;51.008;4.300;2023-07-08T09:15:13;31.40;99.90
19538;DHT22;9914;51.008;4.300;2023-07-08T09:17:39;31.50;99.90
19538;DHT22;9914;51.008;4.300;2023-07-08T09:20:26;31.60;99.90
19538;DHT22;9914;51.008;4.300;2023-07-08T09:23:09;31.90;99.90
19538;DHT22;9914;51.008;4.300;2023-07-08T09:25:42;32.00;99.90
19538;DHT22;9914;51.008;4.300;2023-07-08T09:28:13;32.10;99.90
19538;DHT22;9914;51.008;4.300;2023-07-08T09:30:39;32.10;99.90
19538;DHT22;9914;51.008;4.300;2023-07-08T09:33:08;31.90;99.90
19538;DHT22;9914;51.008;4.300;2023-07-08T09:35:42;32.10;99.90
19538;DHT22;9914;51.008;4.300;2023-07-08T09:38:14;32.10;99.90
19538;DHT22;9914;51.008;4.300;2023-07-08T09:40:46;31.40;99.90
19538;DHT22;9914;51.008;4.300;2023-07-08T09:43:19;31.70;98.20
19538;DHT22;9914;51.008;4.300;2023-07-08T09:45:47;32.00;98.20
19538;DHT22;9914;51.008;4.300;2023-07-08T09:48:24;32.10;99.90
19538;DHT22;9914;51.008;4.300;2023-07-08T09:50:52;32.20;99.90
19538;DHT22;9914;51.008;4.300;2023-07-08T09:53:18;32.50;99.90
19538;DHT22;9914;51.008;4.300;2023-07-08T09:55:44;32.60;99.90
19538;DHT22;9914;51.008;4.300;2023-07-08T09:58:19;32.80;99.80
19538;DHT22;9914;51.008;4.300;2023-07-08T10:00:51;32.80;99.90
19538;DHT22;9914;51.008;4.300;2023-07-08T10:03:27;33.00;99.90
19538;DHT22;9914;51.008;4.300;2023-07-08T10:05:56;32.80;99.90
19538;DHT22;9914;51.008;4.300;2023-07-08T10:08:25;32.60;99.30
19538;DHT22;9914;51.008;4.300;2023-07-08T10:13:37;31.80;99.40
19538;DHT22;9914;51.008;4.300;2023-07-08T10:16:24;31.70;99.90
19538;DHT22;9914;51.008;4.300;2023-07-08T10:18:51;32.00;99.90
19538;DHT22;9914;51.008;4.300;2023-07-08T10:23:57;32.10;99.80
19538;DHT22;9914;51.008;4.300;2023-07-08T10:26:30;32.50;99.10
19538;DHT22;9914;51.008;4.300;2023-07-08T10:36:58;33.30;96.70
19538;DHT22;9914;51.008;4.300;2023-07-08T10:39:53;33.20;97.50
19538;DHT22;9914;51.008;4.300;2023-07-08T10:55:59;33.10;96.60
19538;DHT22;9914;51.008;4.300;2023-07-08T11:01:19;32.80;97.30
19538;DHT22;9914;51.008;4.300;2023-07-08T11:04:12;32.90;97.00
19538;DHT22;9914;51.008;4.300;2023-07-08T11:07:15;33.00;97.50
19538;DHT22;9914;51.008;4.300;2023-07-08T11:09:58;33.30;96.90
19538;DHT22;9914;51.008;4.300;2023-07-08T11:12:38;33.40;96.70
19538;DHT22;9914;51.008;4.300;2023-07-08T11:15:29;33.30;97.70
19538;DHT22;9914;51.008;4.300;2023-07-08T11:18:09;33.60;97.70
19538;DHT22;9914;51.008;4.300;2023-07-08T11:20:56;33.70;97.10
19538;DHT22;9914;51.008;4.300;2023-07-08T11:23:36;33.90;95.90
19538;DHT22;9914;51.008;4.300;2023-07-08T11:28:43;34.10;95.30
19538;DHT22;9914;51.008;4.300;2023-07-08T11:31:09;34.30;94.60
19538;DHT22;9914;51.008;4.300;2023-07-08T11:33:37;34.30;94.50
19538;DHT22;9914;51.008;4.300;2023-07-08T11:36:03;34.20;94.20
19538;DHT22;9914;51.008;4.300;2023-07-08T11:38:32;34.30;93.90
19538;DHT22;9914;51.008;4.300;2023-07-08T11:41:03;34.50;93.80
19538;DHT22;9914;51.008;4.300;2023-07-08T11:43:49;34.70;93.90
19538;DHT22;9914;51.008;4.300;2023-07-08T11:46:20;34.60;93.30
19538;DHT22;9914;51.008;4.300;2023-07-08T11:48:49;34.60;93.50
19538;DHT22;9914;51.008;4.300;2023-07-08T11:51:22;34.80;93.50
19538;DHT22;9914;51.008;4.300;2023-07-08T11:53:55;34.90;92.30
19538;DHT22;9914;51.008;4.300;2023-07-08T11:56:25;35.00;92.40
19538;DHT22;9914;51.008;4.300;2023-07-08T11:59:08;35.00;92.70
19538;DHT22;9914;51.008;4.300;2023-07-08T12:01:40;35.10;93.00
19538;DHT22;9914;51.008;4.300;2023-07-08T12:09:25;35.50;93.10
19538;DHT22;9914;51.008;4.300;2023-07-08T12:11:55;35.80;92.20
19538;DHT22;9914;51.008;4.300;2023-07-08T12:14:22;35.80;92.20
19538;DHT22;9914;51.008;4.300;2023-07-08T12:16:49;35.80;92.00
19538;DHT22;9914;51.008;4.300;2023-07-08T12:19:18;35.90;91.70
19538;DHT22;9914;51.008;4.300;2023-07-08T12:21:45;36.10;92.10
19538;DHT22;9914;51.008;4.300;2023-07-08T12:24:12;36.50;91.30
19538;DHT22;9914;51.008;4.300;2023-07-08T12:26:38;36.60;91.20
19538;DHT22;9914;51.008;4.300;2023-07-08T12:29:04;36.80;91.20
19538;DHT22;9914;51.008;4.300;2023-07-08T12:31:30;37.30;91.30
19538;DHT22;9914;51.008;4.300;2023-07-08T12:33:58;37.40;91.00
19538;DHT22;9914;51.008;4.300;2023-07-08T12:36:26;37.50;90.90
19538;DHT22;9914;51.008;4.300;2023-07-08T12:38:56;37.90;91.40
19538;DHT22;9914;51.008;4.300;2023-07-08T12:41:30;38.20;90.70
19538;DHT22;9914;51.008;4.300;2023-07-08T12:43:57;38.30;88.90
19538;DHT22;9914;51.008;4.300;2023-07-08T12:46:25;37.90;89.80
19538;DHT22;9914;51.008;4.300;2023-07-08T12:48:51;37.70;90.50
19538;DHT22;9914;51.008;4.300;2023-07-08T12:51:20;37.60;90.90
19538;DHT22;9914;51.008;4.300;2023-07-08T12:53:47;37.10;90.70
19538;DHT22;9914;51.008;4.300;2023-07-08T12:56:12;37.30;91.20
19538;DHT22;9914;51.008;4.300;2023-07-08T12:58:48;37.60;90.20
19538;DHT22;9914;51.008;4.300;2023-07-08T13:01:22;37.60;90.40
19538;DHT22;9914;51.008;4.300;2023-07-08T13:03:52;37.60;90.70
19538;DHT22;9914;51.008;4.300;2023-07-08T13:06:23;37.30;91.20
19538;DHT22;9914;51.008;4.300;2023-07-08T13:08:50;37.60;90.80
19538;DHT22;9914;51.008;4.300;2023-07-08T13:11:22;37.90;90.60
19538;DHT22;9914;51.008;4.300;2023-07-08T13:14:00;37.80;90.80
19538;DHT22;9914;51.008;4.300;2023-07-08T13:16:31;37.70;90.50
19538;DHT22;9914;51.008;4.300;2023-07-08T13:18:57;37.30;90.50
19538;DHT22;9914;51.008;4.300;2023-07-08T13:21:23;37.20;91.10
19538;DHT22;9914;51.008;4.300;2023-07-08T13:23:50;37.60;90.90
19538;DHT22;9914;51.008;4.300;2023-07-08T13:26:19;37.60;91.60
19538;DHT22;9914;51.008;4.300;2023-07-08T13:28:46;37.20;92.60
19538;DHT22;9914;51.008;4.300;2023-07-08T13:31:22;36.40;94.10
19538;DHT22;9914;51.008;4.300;2023-07-08T13:33:53;35.90;94.90
19538;DHT22;9914;51.008;4.300;2023-07-08T13:36:23;35.40;94.20
19538;DHT22;9914;51.008;4.300;2023-07-08T13:38:56;34.60;94.80
19538;DHT22;9914;51.008;4.300;2023-07-08T13:41:23;33.80;96.00
19538;DHT22;9914;51.008;4.300;2023-07-08T13:43:49;33.20;97.50
19538;DHT22;9914;51.008;4.300;2023-07-08T13:46:35;33.10;98.00
19538;DHT22;9914;51.008;4.300;2023-07-08T13:49:10;33.20;98.20
19538;DHT22;9914;51.008;4.300;2023-07-08T13:51:36;33.00;98.90
19538;DHT22;9914;51.008;4.300;2023-07-08T13:54:20;33.10;98.80
19538;DHT22;9914;51.008;4.300;2023-07-08T13:56:47;33.40;98.40
19538;DHT22;9914;51.008;4.300;2023-07-08T13:59:19;32.90;98.90
19538;DHT22;9914;51.008;4.300;2023-07-08T14:01:45;32.50;99.50
19538;DHT22;9914;51.008;4.300;2023-07-08T14:04:17;32.60;98.60
19538;DHT22;9914;51.008;4.300;2023-07-08T14:06:43;32.70;97.50
19538;DHT22;9914;51.008;4.300;2023-07-08T14:09:20;32.10;98.90
19538;DHT22;9914;51.008;4.300;2023-07-08T14:11:49;31.50;98.30
19538;DHT22;9914;51.008;4.300;2023-07-08T14:14:15;30.00;99.90
19538;DHT22;9914;51.008;4.300;2023-07-08T14:16:43;29.90;99.90
19538;DHT22;9914;51.008;4.300;2023-07-08T14:19:15;30.00;99.90
19538;DHT22;9914;51.008;4.300;2023-07-08T14:21:42;30.30;97.80
19538;DHT22;9914;51.008;4.300;2023-07-08T14:24:12;30.70;98.10
19538;DHT22;9914;51.008;4.300;2023-07-08T14:26:42;31.10;95.00
19538;DHT22;9914;51.008;4.300;2023-07-08T14:29:08;31.50;95.80
19538;DHT22;9914;51.008;4.300;2023-07-08T14:31:33;32.00;96.00
19538;DHT22;9914;51.008;4.300;2023-07-08T14:34:04;32.20;95.50
19538;DHT22;9914;51.008;4.300;2023-07-08T14:36:31;32.50;95.50
19538;DHT22;9914;51.008;4.300;2023-07-08T14:38:57;32.70;95.80
19538;DHT22;9914;51.008;4.300;2023-07-08T14:41:23;32.70;96.10
19538;DHT22;9914;51.008;4.300;2023-07-08T14:43:50;33.20;96.20
19538;DHT22;9914;51.008;4.300;2023-07-08T14:46:16;34.00;95.90
19538;DHT22;9914;51.008;4.300;2023-07-08T14:48:42;34.80;95.60
19538;DHT22;9914;51.008;4.300;2023-07-08T14:51:08;35.50;94.60
19538;DHT22;9914;51.008;4.300;2023-07-08T14:53:33;36.00;94.50
19538;DHT22;9914;51.008;4.300;2023-07-08T14:56:01;36.40;93.60
19538;DHT22;9914;51.008;4.300;2023-07-08T14:58:32;36.50;93.60
19538;DHT22;9914;51.008;4.300;2023-07-08T15:01:00;36.50;93.00
19538;DHT22;9914;51.008;4.300;2023-07-08T15:03:28;37.10;92.90
19538;DHT22;9914;51.008;4.300;2023-07-08T15:05:54;38.60;92.10
19538;DHT22;9914;51.008;4.300;2023-07-08T15:08:20;40.70;90.50
19538;DHT22;9914;51.008;4.300;2023-07-08T15:10:49;42.80;89.00
19538;DHT22;9914;51.008;4.300;2023-07-08T15:13:17;43.60;86.80
19538;DHT22;9914;51.008;4.300;2023-07-08T15:15:43;44.80;84.70
19538;DHT22;9914;51.008;4.300;2023-07-08T15:18:15;45.10;80.80
19538;DHT22;9914;51.008;4.300;2023-07-08T15:20:41;45.70;79.30
19538;DHT22;9914;51.008;4.300;2023-07-08T15:23:09;45.80;79.20
19538;DHT22;9914;51.008;4.300;2023-07-08T15:25:36;45.60;78.70
19538;DHT22;9914;51.008;4.300;2023-07-08T15:28:02;44.30;79.00
19538;DHT22;9914;51.008;4.300;2023-07-08T15:30:29;44.00;80.00
19538;DHT22;9914;51.008;4.300;2023-07-08T15:32:55;43.40;80.20
19538;DHT22;9914;51.008;4.300;2023-07-08T15:35:26;42.30;81.10
19538;DHT22;9914;51.008;4.300;2023-07-08T15:37:57;42.60;82.10
19538;DHT22;9914;51.008;4.300;2023-07-08T15:40:25;41.90;83.20
19538;DHT22;9914;51.008;4.300;2023-07-08T15:42:54;41.90;83.30
19538;DHT22;9914;51.008;4.300;2023-07-08T15:45:37;41.40;83.80
19538;DHT22;9914;51.008;4.300;2023-07-08T15:48:03;42.00;83.70
19538;DHT22;9914;51.008;4.300;2023-07-08T15:50:29;42.80;82.90
19538;DHT22;9914;51.008;4.300;2023-07-08T15:52:56;43.50;81.40
19538;DHT22;9914;51.008;4.300;2023-07-08T15:55:27;44.40;81.80
19538;DHT22;9914;51.008;4.300;2023-07-08T15:58:05;44.70;80.70
19538;DHT22;9914;51.008;4.300;2023-07-08T16:00:33;45.20;80.20
19538;DHT22;9914;51.008;4.300;2023-07-08T16:03:01;45.40;79.80
19538;DHT22;9914;51.008;4.300;2023-07-08T16:05:31;45.00;80.00
19538;DHT22;9914;51.008;4.300;2023-07-08T16:07:59;44.60;80.70
19538;DHT22;9914;51.008;4.300;2023-07-08T16:10:25;44.10;81.90
19538;DHT22;9914;51.008;4.300;2023-07-08T16:12:51;43.30;82.00
19538;DHT22;9914;51.008;4.300;2023-07-08T16:15:30;42.40;84.10
19538;DHT22;9914;51.008;4.300;2023-07-08T16:17:57;41.70;86.00
19538;DHT22;9914;51.008;4.300;2023-07-08T16:20:26;41.70;86.00
19538;DHT22;9914;51.008;4.300;2023-07-08T16:22:53;42.00;86.40
19538;DHT22;9914;51.008;4.300;2023-07-08T16:25:34;42.50;84.90
19538;DHT22;9914;51.008;4.300;2023-07-08T16:28:01;43.60;83.90
19538;DHT22;9914;51.008;4.300;2023-07-08T16:30:28;44.30;82.30
19538;DHT22;9914;51.008;4.300;2023-07-08T16:32:54;45.00;80.70
19538;DHT22;9914;51.008;4.300;2023-07-08T16:35:20;45.40;80.00
19538;DHT22;9914;51.008;4.300;2023-07-08T16:37:52;46.00;79.40
19538;DHT22;9914;51.008;4.300;2023-07-08T16:40:23;46.10;79.20
19538;DHT22;9914;51.008;4.300;2023-07-08T16:42:51;45.40;78.80